Time;durP1;ratioP1;P1;durP2;ratioP2;P2;SDS_P1;SDS_P2;PMS_P1;PMS_P2;Temp;Humidity;BMP_temperature;BMP_pressure;BME280_temperature;BME280_humidity;BME280_pressure;Samples;Min_cycle;Max_cycle;Signal;HPM_P1;HPM_P2
2023/09/28 00:00:38;;;;;;;6.18;3.10;;;;;;;14.19;66.57;96600.69;5134493;27;20055;-61
2023/09/28 00:03:05;;;;;;;7.45;3.97;;;;;;;14.15;66.48;96594.75;5134011;27;20148;-61
2023/09/28 00:05:34;;;;;;;6.82;3.00;;;;;;;14.17;66.67;96599.91;5134211;27;20096;-61
2023/09/28 00:08:01;;;;;;;7.15;3.28;;;;;;;14.17;67.01;96590.22;5134308;27;20122;-61
2023/09/28 00:10:30;;;;;;;10.13;3.17;;;;;;;14.12;67.06;96590.47;5134192;27;20078;-61
2023/09/28 00:13:14;;;;;;;6.47;2.95;;;;;;;14.11;67.23;96593.16;5134049;27;20226;-61
2023/09/28 00:15:42;;;;;;;5.13;2.80;;;;;;;14.07;67.27;96602.16;5134090;27;20071;-61
2023/09/28 00:20:55;;;;;;;9.98;3.33;;;;;;;14.00;67.52;96596.38;5133880;27;20080;-61
2023/09/28 00:23:21;;;;;;;5.82;3.17;;;;;;;13.99;67.79;96595.50;5133658;27;20047;-61
2023/09/28 00:25:49;;;;;;;10.48;3.25;;;;;;;13.99;67.78;96594.66;5134182;28;20143;-61
2023/09/28 00:28:15;;;;;;;7.63;3.08;;;;;;;13.97;67.51;96600.00;5133981;28;20045;-61
2023/09/28 00:31:01;;;;;;;7.80;3.22;;;;;;;13.88;67.93;96606.56;5134053;28;20047;-61
2023/09/28 00:36:14;;;;;;;8.90;2.92;;;;;;;13.66;68.40;96601.53;5134149;28;20444;-61
2023/09/28 00:38:58;;;;;;;9.23;3.33;;;;;;;13.53;68.90;96596.03;5133902;28;20089;-61
2023/09/28 00:41:44;;;;;;;12.65;3.75;;;;;;;13.43;69.42;96602.63;5133962;27;20047;-61
2023/09/28 00:44:10;;;;;;;9.77;3.40;;;;;;;13.40;69.59;96596.59;5134197;27;20051;-61
2023/09/28 00:46:38;;;;;;;4.10;3.15;;;;;;;13.48;69.69;96605.88;5133767;28;20058;-61
2023/09/28 00:49:05;;;;;;;5.32;2.92;;;;;;;13.48;69.96;96604.09;5133992;27;20086;-61
2023/09/28 00:51:51;;;;;;;6.78;3.45;;;;;;;13.46;70.25;96595.44;5133652;28;20497;-61
2023/09/28 00:54:18;;;;;;;6.55;3.67;;;;;;;13.46;70.17;96600.69;5133901;27;20047;-61
2023/09/28 00:56:45;;;;;;;7.75;3.50;;;;;;;13.47;70.26;96599.78;5133794;28;20040;-61
2023/09/28 00:59:11;;;;;;;6.68;3.20;;;;;;;13.50;70.07;96594.41;5133750;28;20130;-61
2023/09/28 01:01:57;;;;;;;7.43;3.13;;;;;;;13.59;70.13;96594.88;5133388;28;20142;-61
2023/09/28 01:04:42;;;;;;;6.85;2.90;;;;;;;13.63;69.40;96592.03;5133837;28;20043;-61
2023/09/28 01:07:12;;;;;;;4.28;2.63;;;;;;;13.67;69.24;96595.38;5133734;27;20146;-61
2023/09/28 01:09:39;;;;;;;11.70;3.33;;;;;;;13.72;69.31;96595.97;5133708;28;20453;-61
2023/09/28 01:12:08;;;;;;;7.70;3.50;;;;;;;13.72;69.26;96601.22;5133605;28;20104;-62
2023/09/28 01:14:36;;;;;;;10.18;3.55;;;;;;;13.75;69.19;96598.44;5133642;27;20078;-61
2023/09/28 01:19:47;;;;;;;6.05;3.03;;;;;;;13.83;69.24;96591.97;5133629;28;20137;-61
2023/09/28 01:22:15;;;;;;;6.45;3.20;;;;;;;13.86;69.12;96584.78;5133613;27;20112;-61
2023/09/28 01:24:44;;;;;;;7.80;3.72;;;;;;;13.89;69.24;96589.88;5133435;28;20078;-61
2023/09/28 01:27:11;;;;;;;7.47;3.00;;;;;;;13.84;69.46;96591.03;5133422;28;20054;-61
2023/09/28 01:29:38;;;;;;;8.73;3.45;;;;;;;13.85;69.47;96579.59;5133481;27;20050;-61
2023/09/28 01:32:23;;;;;;;9.43;3.30;;;;;;;13.84;69.51;96584.00;5133362;27;20485;-61
2023/09/28 01:34:49;;;;;;;6.18;3.03;;;;;;;13.82;69.48;96577.13;5137114;27;20501;-61
2023/09/28 01:37:20;;;;;;;12.73;3.28;;;;;;;13.69;69.73;96575.09;5137012;27;20035;-61
2023/09/28 01:39:46;;;;;;;10.93;4.13;;;;;;;13.67;70.22;96576.97;5137038;27;20126;-62
2023/09/28 01:45:16;;;;;;;5.28;3.35;;;;;;;13.55;70.81;96582.81;5137074;27;20409;-61
2023/09/28 01:50:27;;;;;;;11.95;3.55;;;;;;;13.44;71.57;96586.81;5137051;27;20503;-61
2023/09/28 01:52:54;;;;;;;11.02;3.53;;;;;;;13.45;71.81;96585.88;5136621;27;20043;-61
2023/09/28 01:55:22;;;;;;;12.40;4.15;;;;;;;13.47;71.86;96581.41;5136829;27;20043;-61
2023/09/28 01:57:48;;;;;;;9.23;3.53;;;;;;;13.37;72.43;96586.22;5136753;27;20043;-61
2023/09/28 02:00:18;;;;;;;10.40;3.83;;;;;;;13.30;73.63;96582.22;5136605;27;20043;-61
2023/09/28 02:03:03;;;;;;;10.23;3.58;;;;;;;13.32;73.81;96577.75;5136340;27;20043;-61
2023/09/28 02:05:32;;;;;;;12.25;3.60;;;;;;;13.32;74.22;96580.38;5136702;27;20066;-61
2023/09/28 02:08:00;;;;;;;9.63;3.78;;;;;;;13.31;74.76;96577.81;5136572;27;20074;-61
2023/09/28 02:10:28;;;;;;;9.80;3.45;;;;;;;13.34;75.14;96577.66;5136478;27;20049;-61
2023/09/28 02:12:55;;;;;;;12.90;4.90;;;;;;;13.34;75.38;96586.38;5136234;27;20087;-61
2023/09/28 02:15:23;;;;;;;13.75;4.30;;;;;;;13.38;75.69;96587.09;5136258;27;20044;-61
2023/09/28 02:18:07;;;;;;;8.55;3.58;;;;;;;13.38;75.57;96576.59;5136326;27;20047;-61
2023/09/28 02:23:39;;;;;;;9.80;3.88;;;;;;;13.40;76.34;96580.84;5136349;27;20093;-61
2023/09/28 02:26:24;;;;;;;18.17;4.28;;;;;;;13.40;77.12;96593.13;5136053;27;20049;-62
2023/09/28 02:28:52;;;;;;;15.73;4.00;;;;;;;13.47;77.05;96589.28;5136122;27;20054;-61
2023/09/28 02:31:17;;;;;;;9.80;4.18;;;;;;;13.54;76.80;96587.22;5135997;27;20043;-61
2023/09/28 02:33:47;;;;;;;10.23;3.70;;;;;;;13.56;76.74;96598.53;5135932;27;20130;-61
2023/09/28 02:36:31;;;;;;;16.85;4.03;;;;;;;13.61;76.52;96593.03;5136015;27;20054;-61
2023/09/28 02:39:00;;;;;;;7.45;4.15;;;;;;;13.64;76.30;96596.34;5135800;27;20043;-61
2023/09/28 02:41:25;;;;;;;10.60;3.88;;;;;;;13.66;76.39;96600.69;5135891;27;20116;-61
2023/09/28 02:46:37;;;;;;;11.68;3.92;;;;;;;13.71;76.23;96604.78;5135689;27;20070;-61
2023/09/28 02:49:23;;;;;;;10.13;4.03;;;;;;;13.72;75.97;96606.50;5135807;27;20476;-61
2023/09/28 02:52:10;;;;;;;9.30;3.58;;;;;;;13.75;75.75;96606.34;5135626;27;20055;-61
2023/09/28 02:54:37;;;;;;;9.82;4.45;;;;;;;13.70;75.80;96603.06;5135708;27;20043;-61
2023/09/28 02:57:22;;;;;;;11.02;4.10;;;;;;;13.71;75.48;96610.06;5135670;27;20039;-61
2023/09/28 03:02:56;;;;;;;11.98;4.38;;;;;;;13.68;76.20;96609.34;5135276;27;20087;-62
2023/09/28 03:05:24;;;;;;;5.68;3.90;;;;;;;13.72;76.19;96614.38;5135298;27;20054;-61
2023/09/28 03:07:51;;;;;;;9.43;4.15;;;;;;;13.73;76.09;96612.59;5135256;27;20046;-61
2023/09/28 03:10:20;;;;;;;9.65;4.15;;;;;;;13.77;76.41;96608.91;5135163;27;20100;-61
2023/09/28 03:12:51;;;;;;;7.50;3.78;;;;;;;13.79;76.22;96612.31;5135020;27;20440;-61
2023/09/28 03:15:17;;;;;;;9.88;4.15;;;;;;;13.78;76.14;96615.84;5135168;27;20093;-61
2023/09/28 03:17:46;;;;;;;13.73;4.53;;;;;;;13.76;76.32;96615.09;5135065;27;20069;-61
2023/09/28 03:23:16;;;;;;;10.10;4.18;;;;;;;13.76;76.68;96612.47;5135171;27;20141;-62
2023/09/28 03:25:45;;;;;;;9.68;3.90;;;;;;;13.81;76.52;96613.06;5134967;27;20051;-61
2023/09/28 03:28:13;;;;;;;13.80;3.65;;;;;;;13.80;76.54;96611.38;5135016;27;20143;-61
2023/09/28 03:30:40;;;;;;;12.07;5.03;;;;;;;13.76;76.74;96609.84;5135054;27;20097;-61
2023/09/28 03:33:07;;;;;;;8.85;4.15;;;;;;;13.82;76.51;96608.66;5134663;27;20051;-61
2023/09/28 03:35:34;;;;;;;10.77;4.10;;;;;;;13.86;76.21;96613.69;5134818;27;20100;-61
2023/09/28 03:38:01;;;;;;;13.93;5.07;;;;;;;13.85;76.11;96614.59;5134790;27;20050;-61
2023/09/28 03:40:33;;;;;;;10.10;4.43;;;;;;;13.88;76.34;96614.44;5134568;27;20553;-62
2023/09/28 03:43:02;;;;;;;10.50;4.15;;;;;;;13.93;76.29;96616.03;5134688;27;20050;-61
2023/09/28 03:45:29;;;;;;;6.93;4.13;;;;;;;13.93;76.46;96610.75;5134584;27;20058;-61
2023/09/28 03:50:41;;;;;;;7.47;3.80;;;;;;;14.06;76.31;96617.06;5134700;27;20123;-61
2023/09/28 03:53:26;;;;;;;7.30;3.60;;;;;;;14.09;76.25;96616.09;5134386;27;20074;-61
2023/09/28 03:56:12;;;;;;;16.80;4.82;;;;;;;14.10;76.45;96628.31;5134209;27;20107;-61
2023/09/28 03:58:40;;;;;;;8.65;4.13;;;;;;;14.21;76.21;96618.06;5134413;27;20050;-61
2023/09/28 04:01:08;;;;;;;15.48;3.90;;;;;;;14.31;76.01;96621.09;5134365;27;20148;-61
2023/09/28 04:03:36;;;;;;;9.48;4.13;;;;;;;14.44;75.71;96625.69;5134049;27;20047;-61
2023/09/28 04:06:03;;;;;;;9.93;4.00;;;;;;;14.48;75.58;96630.72;5134217;27;20039;-61
2023/09/28 04:08:30;;;;;;;13.38;4.20;;;;;;;14.53;75.50;96625.22;5134179;27;20047;-61
2023/09/28 04:10:57;;;;;;;7.60;3.95;;;;;;;14.62;75.11;96627.38;5134124;27;20059;-61
2023/09/28 04:13:43;;;;;;;14.57;4.50;;;;;;;14.71;74.81;96628.66;5133973;27;20051;-61
2023/09/28 04:16:12;;;;;;;9.10;3.60;;;;;;;14.75;74.34;96624.09;5134137;27;20146;-61
2023/09/28 04:18:39;;;;;;;8.15;3.63;;;;;;;14.83;74.38;96624.56;5134184;27;20043;-61
2023/09/28 04:21:06;;;;;;;9.02;4.07;;;;;;;14.95;73.65;96623.03;5134086;27;20481;-61
2023/09/28 04:26:36;;;;;;;5.68;3.80;;;;;;;15.10;73.06;96629.25;5134207;27;20529;-61
2023/09/28 04:29:03;;;;;;;16.88;4.07;;;;;;;15.19;72.47;96640.22;5134131;27;20043;-61
2023/09/28 04:31:32;;;;;;;8.25;3.40;;;;;;;15.27;72.29;96635.38;5133965;28;20046;-61
2023/09/28 04:36:44;;;;;;;12.57;3.60;;;;;;;15.38;71.74;96643.53;5134115;28;20047;-61
2023/09/28 04:39:30;;;;;;;10.23;4.18;;;;;;;15.40;71.75;96641.66;5134060;27;20069;-61
2023/09/28 04:41:58;;;;;;;9.00;4.65;;;;;;;15.42;71.62;96652.13;5133976;28;20043;-61
2023/09/28 04:44:26;;;;;;;9.27;3.88;;;;;;;15.43;71.24;96652.97;5133828;28;20047;-61
2023/09/28 04:47:13;;;;;;;15.20;3.55;;;;;;;15.45;71.48;96651.09;5133805;28;20046;-61
2023/09/28 04:52:43;;;;;;;8.32;3.45;;;;;;;15.47;71.34;96663.25;5133766;28;20514;-61
2023/09/28 04:55:29;;;;;;;11.38;4.25;;;;;;;15.35;71.78;96667.41;5133836;27;20179;-61
2023/09/28 04:57:56;;;;;;;8.43;4.07;;;;;;;15.38;71.52;96661.97;5133756;28;20086;-61
2023/09/28 05:00:23;;;;;;;17.73;4.22;;;;;;;15.28;71.91;96668.69;5133763;28;20043;-61
2023/09/28 05:03:11;;;;;;;11.93;4.93;;;;;;;15.28;72.10;96673.97;5133506;28;20090;-61
2023/09/28 05:05:38;;;;;;;8.07;4.10;;;;;;;15.29;72.33;96673.88;5133700;28;20130;-61
2023/09/28 05:08:08;;;;;;;10.52;4.22;;;;;;;15.26;72.65;96681.94;5134882;27;20040;-61
2023/09/28 05:10:36;;;;;;;6.63;3.60;;;;;;;15.36;72.95;96679.69;5137758;27;20047;-61
2023/09/28 05:13:04;;;;;;;14.82;4.53;;;;;;;15.45;72.77;96680.09;5137409;27;20050;-61
2023/09/28 05:15:31;;;;;;;12.18;4.50;;;;;;;15.49;72.89;96677.19;5137453;27;20043;-61
2023/09/28 05:17:59;;;;;;;13.13;4.43;;;;;;;15.65;72.68;96686.88;5137552;27;20138;-61
2023/09/28 05:20:28;;;;;;;7.65;3.80;;;;;;;15.83;72.39;96686.78;5137423;27;20134;-61
2023/09/28 05:22:59;;;;;;;14.60;4.28;;;;;;;16.02;71.86;96683.97;5137398;27;20051;-62
2023/09/28 05:25:27;;;;;;;10.90;3.85;;;;;;;16.18;71.17;96683.91;5137301;27;20050;-62
2023/09/28 05:27:55;;;;;;;16.50;4.30;;;;;;;16.31;70.96;96681.41;5137246;27;20076;-62
2023/09/28 05:30:40;;;;;;;12.52;4.20;;;;;;;16.51;70.22;96685.50;5137364;27;20035;-61
2023/09/28 05:33:08;;;;;;;16.48;4.22;;;;;;;16.64;69.66;96684.75;5137128;27;20048;-61
2023/09/28 05:35:37;;;;;;;13.68;4.10;;;;;;;16.74;69.38;96685.06;5137145;27;20097;-61
2023/09/28 05:38:08;;;;;;;14.07;4.22;;;;;;;16.79;68.67;96675.06;5137046;27;20061;-62
2023/09/28 05:40:37;;;;;;;28.52;5.25;;;;;;;16.86;69.04;96679.00;5136975;27;20051;-61
2023/09/28 05:43:07;;;;;;;10.02;4.00;;;;;;;16.94;68.99;96683.81;5136927;27;20123;-61
2023/09/28 05:45:35;;;;;;;13.00;4.13;;;;;;;17.03;68.67;96690.34;5136924;27;20047;-61
2023/09/28 05:48:04;;;;;;;18.30;4.80;;;;;;;17.13;68.46;96691.50;5136715;27;20422;-61
2023/09/28 05:50:32;;;;;;;8.30;4.32;;;;;;;17.24;66.88;96689.97;5136727;27;20056;-61
2023/09/28 05:53:01;;;;;;;11.32;4.30;;;;;;;17.32;66.79;96689.50;5136631;27;20134;-61
2023/09/28 05:55:28;;;;;;;15.45;4.28;;;;;;;17.45;66.66;96684.28;5136724;27;20400;-61
2023/09/28 05:57:55;;;;;;;9.95;4.38;;;;;;;17.60;66.22;96693.00;5136765;27;20051;-61
2023/09/28 06:00:24;;;;;;;15.02;4.80;;;;;;;17.71;65.22;96692.34;5136608;27;20065;-61
2023/09/28 06:02:52;;;;;;;8.98;4.00;;;;;;;17.87;65.36;96690.38;5135600;27;20047;-61
2023/09/28 06:05:19;;;;;;;8.35;3.78;;;;;;;18.00;63.50;96690.41;5135335;28;20047;-61
2023/09/28 06:07:46;;;;;;;9.25;4.25;;;;;;;18.08;62.90;96689.91;5135295;28;20047;-61
2023/09/28 06:10:33;;;;;;;10.05;3.55;;;;;;;18.23;62.68;96690.72;5135358;28;20105;-61
2023/09/28 06:13:20;;;;;;;14.02;3.85;;;;;;;18.31;62.67;96692.88;5135326;27;20481;-61
2023/09/28 06:15:50;;;;;;;8.50;3.90;;;;;;;18.47;62.87;96692.69;5135291;27;20039;-61
2023/09/28 06:18:18;;;;;;;13.93;4.32;;;;;;;18.74;61.21;96689.09;5135266;28;20051;-61
2023/09/28 06:20:45;;;;;;;7.68;3.50;;;;;;;19.08;60.64;96683.25;5135064;27;20471;-61
2023/09/28 06:23:14;;;;;;;7.90;3.50;;;;;;;19.26;58.94;96688.25;5135229;28;20051;-61
2023/09/28 06:25:44;;;;;;;9.88;3.67;;;;;;;19.45;58.75;96687.78;5135051;27;20043;-61
2023/09/28 06:28:12;;;;;;;13.38;3.45;;;;;;;19.59;57.07;96689.41;5135137;28;20070;-61
2023/09/28 06:30:39;;;;;;;13.63;3.63;;;;;;;19.69;57.43;96695.75;5134806;28;20496;-61
2023/09/28 06:33:06;;;;;;;8.95;3.50;;;;;;;19.74;57.58;96692.75;5134802;28;20100;-61
2023/09/28 06:35:52;;;;;;;14.88;4.10;;;;;;;19.95;55.81;96708.06;5134853;28;20042;-61
2023/09/28 06:38:19;;;;;;;9.65;3.40;;;;;;;20.33;55.68;96706.22;5134900;27;20044;-61
2023/09/28 06:40:48;;;;;;;11.48;3.95;;;;;;;21.00;52.78;96700.31;5134823;28;20047;-61
2023/09/28 06:43:15;;;;;;;13.43;3.67;;;;;;;21.58;50.25;96710.81;5134745;28;20076;-61
2023/09/28 06:48:46;;;;;;;10.40;3.67;;;;;;;21.92;49.56;96711.75;5134898;28;20050;-61
2023/09/28 06:51:15;;;;;;;7.30;3.33;;;;;;;22.14;48.47;96708.16;5134728;27;20107;-62
2023/09/28 06:53:43;;;;;;;13.05;2.95;;;;;;;22.37;48.30;96708.06;5134632;28;20394;-61
2023/09/28 06:58:56;;;;;;;10.50;2.95;;;;;;;22.88;46.89;96710.97;5134677;28;20053;-61
2023/09/28 07:01:24;;;;;;;11.27;3.33;;;;;;;23.00;47.18;96705.53;5081871;27;1478112;-62
2023/09/28 07:03:52;;;;;;;12.55;3.55;;;;;;;23.42;46.84;96710.78;5135385;27;20047;-62
2023/09/28 07:06:21;;;;;;;9.27;3.42;;;;;;;23.78;45.17;96714.84;5135321;27;20447;-62
2023/09/28 07:14:38;;;;;;;10.95;3.15;;;;;;;22.91;46.26;96715.16;5135232;27;20095;-61
2023/09/28 07:17:06;;;;;;;10.85;3.25;;;;;;;22.70;47.52;96702.72;5135101;27;20484;-61
2023/09/28 07:19:33;;;;;;;11.95;3.67;;;;;;;22.39;48.60;96711.44;5135139;27;20046;-61
2023/09/28 07:22:21;;;;;;;11.60;3.53;;;;;;;21.84;49.63;96720.34;5134990;27;20051;-61
2023/09/28 07:24:48;;;;;;;6.53;3.38;;;;;;;21.63;50.22;96715.75;5135062;27;20103;-61
2023/09/28 07:27:17;;;;;;;10.27;3.30;;;;;;;21.72;50.33;96714.16;5135001;27;20416;-61
2023/09/28 07:29:44;;;;;;;10.73;3.38;;;;;;;22.03;50.40;96714.34;5134896;27;20054;-61
2023/09/28 07:32:12;;;;;;;16.85;4.38;;;;;;;22.19;49.98;96711.25;5134419;27;20410;-61
2023/09/28 07:34:43;;;;;;;8.63;3.70;;;;;;;22.30;49.80;96723.69;5134624;27;20051;-61
2023/09/28 07:37:11;;;;;;;10.95;3.95;;;;;;;22.25;49.42;96722.41;5134806;27;20118;-61
2023/09/28 07:39:38;;;;;;;9.73;3.35;;;;;;;22.17;49.28;96723.88;5134841;27;20047;-61
2023/09/28 07:42:07;;;;;;;10.07;3.08;;;;;;;22.48;48.99;96715.13;5134734;27;20055;-61
2023/09/28 07:44:36;;;;;;;6.32;3.45;;;;;;;22.92;47.99;96716.84;5134568;27;20047;-61
2023/09/28 07:47:03;;;;;;;9.00;3.65;;;;;;;23.20;48.35;96711.78;5134534;27;20420;-62
2023/09/28 07:49:30;;;;;;;14.85;3.67;;;;;;;23.58;47.24;96714.78;5134605;27;20043;-62
2023/09/28 07:51:57;;;;;;;13.75;3.58;;;;;;;23.77;45.42;96718.47;5134511;27;20047;-62
2023/09/28 07:54:43;;;;;;;10.55;3.30;;;;;;;23.70;46.11;96723.53;5134353;27;20047;-61
2023/09/28 07:57:11;;;;;;;12.00;3.35;;;;;;;23.64;46.43;96722.25;5134631;27;20477;-61
2023/09/28 07:59:41;;;;;;;11.13;3.20;;;;;;;23.33;46.21;96724.91;5134397;27;20047;-61
2023/09/28 08:02:09;;;;;;;14.95;3.53;;;;;;;23.27;46.38;96718.28;5134133;27;20050;-61
2023/09/28 08:04:37;;;;;;;10.63;3.40;;;;;;;23.25;47.63;96724.72;5134358;27;20047;-61
2023/09/28 08:10:09;;;;;;;10.18;3.50;;;;;;;23.23;47.12;96719.53;5134438;27;20050;-61
2023/09/28 08:12:36;;;;;;;7.07;2.83;;;;;;;23.27;46.64;96715.59;5134342;27;20484;-62
2023/09/28 08:15:06;;;;;;;8.02;3.15;;;;;;;23.34;46.84;96718.59;5134163;27;20137;-62
2023/09/28 08:17:51;;;;;;;11.02;2.97;;;;;;;23.55;46.05;96717.72;5134294;27;20094;-61
2023/09/28 08:20:20;;;;;;;9.60;3.20;;;;;;;23.99;45.83;96722.75;5134170;27;20069;-61
2023/09/28 08:23:05;;;;;;;11.20;3.03;;;;;;;24.28;43.92;96727.28;5134124;27;20082;-62
2023/09/28 08:25:34;;;;;;;9.93;3.35;;;;;;;24.16;43.69;96728.38;5134024;27;20047;-61
2023/09/28 08:28:01;;;;;;;14.25;3.50;;;;;;;23.97;44.41;96720.22;5133955;28;20772;-62
2023/09/28 08:30:29;;;;;;;5.57;3.28;;;;;;;23.93;44.64;96728.63;5134001;28;20064;-61
2023/09/28 08:36:18;;;;;;;10.02;3.38;;;;;;;23.90;44.17;96716.38;5134092;28;20154;-61
2023/09/28 08:38:46;;;;;;;9.75;3.20;;;;;;;23.92;44.62;96721.56;5134080;28;20047;-61
2023/09/28 08:41:16;;;;;;;7.78;3.20;;;;;;;24.17;44.86;96719.41;5133978;28;20050;-61
2023/09/28 08:43:47;;;;;;;13.98;2.85;;;;;;;24.74;43.20;96724.84;5136289;27;20061;-61
2023/09/28 08:46:16;;;;;;;9.32;3.05;;;;;;;24.94;42.51;96718.63;5138159;27;20051;-62
2023/09/28 08:48:46;;;;;;;8.80;3.10;;;;;;;24.71;42.59;96718.97;5138109;27;20515;-61
2023/09/28 08:51:15;;;;;;;7.55;2.75;;;;;;;24.61;42.25;96725.16;5138018;27;20126;-62
2023/09/28 08:53:43;;;;;;;13.00;3.50;;;;;;;24.61;42.00;96716.28;5138054;27;20150;-62
2023/09/28 08:56:10;;;;;;;9.13;3.08;;;;;;;24.61;42.69;96719.81;5137958;27;20047;-63
2023/09/28 08:58:38;;;;;;;7.97;3.13;;;;;;;24.55;42.00;96722.19;5137759;27;20047;-60
2023/09/28 09:01:08;;;;;;;6.35;2.75;;;;;;;24.15;43.29;96710.69;5137852;27;20074;-61
2023/09/28 09:03:55;;;;;;;14.52;2.78;;;;;;;24.01;43.36;96711.88;5137728;27;20086;-61
2023/09/28 09:06:24;;;;;;;6.68;3.17;;;;;;;24.08;43.67;96713.03;5137764;27;20077;-61
2023/09/28 09:08:51;;;;;;;11.60;3.63;;;;;;;24.05;43.75;96716.00;5137714;27;20073;-61
2023/09/28 09:11:19;;;;;;;11.27;2.78;;;;;;;24.19;42.88;96715.59;5137778;27;20122;-61
2023/09/28 09:14:09;;;;;;;11.27;3.28;;;;;;;24.22;43.53;96715.31;5137573;27;20462;-61
2023/09/28 09:16:36;;;;;;;11.73;3.20;;;;;;;24.20;43.71;96708.44;5137570;27;20070;-61
2023/09/28 09:19:04;;;;;;;9.02;3.25;;;;;;;24.16;44.06;96709.69;5137449;27;20073;-61
2023/09/28 09:21:41;;;;;;;8.88;3.50;;;;;;;24.14;42.96;96719.69;5137479;27;20051;-61
2023/09/28 09:27:12;;;;;;;8.23;2.90;;;;;;;24.92;41.57;96704.59;5137386;27;20058;-61
2023/09/28 09:29:40;;;;;;;6.57;2.90;;;;;;;25.30;42.15;96697.41;5137292;27;20047;-61
2023/09/28 09:32:07;;;;;;;5.32;2.88;;;;;;;25.67;39.46;96694.88;5137315;27;20051;-61
2023/09/28 09:34:54;;;;;;;6.57;2.80;;;;;;;25.65;39.41;96699.50;5137017;27;20054;-61
2023/09/28 09:37:21;;;;;;;12.43;3.28;;;;;;;25.62;39.61;96698.00;5137269;27;20047;-61
2023/09/28 09:39:48;;;;;;;4.82;2.60;;;;;;;25.68;39.81;96686.69;5137175;27;20043;-61
2023/09/28 09:42:27;;;;;;;10.98;3.58;;;;;;;25.74;39.80;96685.22;5137132;27;20124;-61
2023/09/28 09:44:55;;;;;;;9.05;2.80;;;;;;;25.46;39.67;96686.03;5136943;27;20087;-61
2023/09/28 09:47:22;;;;;;;9.73;2.90;;;;;;;25.41;40.51;96690.16;5136948;27;20145;-61
2023/09/28 09:49:53;;;;;;;15.00;3.35;;;;;;;25.34;39.72;96690.75;5137068;27;20051;-61
2023/09/28 09:52:20;;;;;;;11.13;3.30;;;;;;;25.10;40.49;96699.28;5137043;27;20406;-61
2023/09/28 09:58:09;;;;;;;7.18;3.13;;;;;;;25.00;39.75;96685.97;5136852;27;20096;-61
2023/09/28 10:00:38;;;;;;;11.40;3.10;;;;;;;24.90;40.47;96682.47;5136687;27;20133;-61
2023/09/28 10:03:06;;;;;;;7.47;2.60;;;;;;;24.92;40.63;96683.19;5136536;27;20404;-61
2023/09/28 10:05:55;;;;;;;10.15;3.22;;;;;;;24.78;40.00;96679.09;5136702;27;20047;-61
2023/09/28 10:08:42;;;;;;;11.23;3.53;;;;;;;24.68;41.45;96673.78;5136606;27;20572;-61
2023/09/28 10:11:11;;;;;;;11.43;3.17;;;;;;;24.88;40.20;96674.59;5136510;27;20050;-61
2023/09/28 10:13:39;;;;;;;7.85;3.03;;;;;;;25.13;39.31;96679.44;5136452;27;20092;-61
2023/09/28 10:22:00;;;;;;;11.52;3.35;;;;;;;25.16;39.17;96669.28;5136409;27;20072;-61
2023/09/28 10:24:48;;;;;;;8.18;3.13;;;;;;;25.10;39.50;96667.19;5136275;27;20043;-61
2023/09/28 10:30:19;;;;;;;8.50;3.20;;;;;;;24.84;39.97;96667.84;5136290;27;20058;-61
2023/09/28 10:33:04;;;;;;;8.68;2.90;;;;;;;24.78;40.40;96658.56;5136078;27;20047;-61
2023/09/28 10:35:33;;;;;;;9.90;2.88;;;;;;;24.67;39.93;96662.25;5136011;27;20259;-61
2023/09/28 10:38:21;;;;;;;8.40;2.95;;;;;;;24.68;40.12;96657.75;5135990;27;20047;-61
2023/09/28 10:41:21;;;;;;;7.60;2.80;;;;;;;24.57;40.91;96669.44;5135903;27;20382;-61
2023/09/28 10:43:51;;;;;;;11.85;3.28;;;;;;;24.54;40.47;96659.88;5135899;27;20477;-61
2023/09/28 10:46:37;;;;;;;4.78;2.60;;;;;;;24.27;40.67;96666.81;5135726;27;20043;-61
2023/09/28 10:52:10;;;;;;;14.23;3.10;;;;;;;23.80;41.59;96664.78;5135876;27;20050;-61
2023/09/28 10:54:39;;;;;;;6.72;3.70;;;;;;;23.69;41.49;96658.59;5135680;27;20039;-61
2023/09/28 10:57:31;;;;;;;9.43;3.05;;;;;;;23.59;41.55;96655.91;5135645;27;20390;-61
2023/09/28 11:00:00;;;;;;;13.65;2.70;;;;;;;23.65;42.07;96656.31;5135569;27;20043;-61
2023/09/28 11:02:29;;;;;;;16.20;3.03;;;;;;;23.57;42.60;96660.53;5135312;27;20561;-61
2023/09/28 11:04:58;;;;;;;10.60;3.20;;;;;;;23.46;42.63;96658.84;5135167;27;20086;-61
2023/09/28 11:07:25;;;;;;;11.82;3.13;;;;;;;23.55;42.80;96661.66;5134877;27;20473;-61
2023/09/28 11:09:54;;;;;;;13.18;2.88;;;;;;;23.60;42.65;96664.78;5135335;27;20537;-61
2023/09/28 11:12:21;;;;;;;15.63;3.22;;;;;;;23.58;42.19;96664.06;5135353;27;20111;-61
2023/09/28 11:14:48;;;;;;;6.32;2.72;;;;;;;23.57;42.14;96662.38;5135117;27;20053;-61
2023/09/28 11:17:16;;;;;;;5.40;2.72;;;;;;;23.57;42.37;96657.03;5135192;27;20477;-61
2023/09/28 11:19:43;;;;;;;8.43;2.97;;;;;;;23.51;42.42;96653.06;5135026;27;20053;-61
2023/09/28 11:22:29;;;;;;;13.48;3.30;;;;;;;23.47;42.75;96660.53;5135051;27;20054;-61
2023/09/28 11:24:58;;;;;;;8.07;2.88;;;;;;;23.43;42.99;96652.94;5135164;27;20078;-61
2023/09/28 11:30:19;;;;;;;10.85;3.10;;;;;;;23.49;43.34;96655.06;5135094;27;20097;-61
2023/09/28 11:33:08;;;;;;;11.85;3.03;;;;;;;23.45;42.96;96657.13;5134877;27;20146;-61
2023/09/28 11:35:38;;;;;;;7.40;2.92;;;;;;;23.41;43.39;96647.72;5134762;27;20051;-61
2023/09/28 11:38:25;;;;;;;12.17;3.53;;;;;;;23.40;42.95;96658.53;5134786;27;20043;-61
2023/09/28 11:40:56;;;;;;;12.43;3.22;;;;;;;23.31;42.92;96657.50;5134760;27;20076;-61
2023/09/28 11:43:23;;;;;;;7.10;2.72;;;;;;;23.15;43.06;96661.50;5134773;27;20054;-61
2023/09/28 11:46:09;;;;;;;11.43;3.00;;;;;;;23.10;43.75;96661.06;5134787;27;20054;-60
2023/09/28 11:54:23;;;;;;;12.50;2.88;;;;;;;22.85;43.71;96656.06;5134872;27;20408;-61
2023/09/28 11:56:53;;;;;;;6.32;3.10;;;;;;;22.91;43.97;96659.19;5134478;27;20150;-61
2023/09/28 11:59:20;;;;;;;6.88;3.38;;;;;;;22.91;43.05;96654.66;5134397;27;20540;-61
2023/09/28 12:04:34;;;;;;;12.35;2.95;;;;;;;23.02;43.19;96661.75;5134538;27;20054;-60
2023/09/28 12:09:47;;;;;;;8.68;2.72;;;;;;;23.03;43.20;96658.09;5134449;27;20143;-60
2023/09/28 12:12:16;;;;;;;7.93;3.00;;;;;;;23.12;43.59;96659.13;5134366;27;20512;-61
2023/09/28 12:17:28;;;;;;;9.93;3.28;;;;;;;23.27;42.95;96659.56;5134202;27;20058;-61
2023/09/28 12:22:58;;;;;;;8.82;2.78;;;;;;;23.41;42.37;96655.72;5134383;27;20050;-60
2023/09/28 12:25:43;;;;;;;12.40;2.88;;;;;;;23.45;42.81;96650.97;5134097;27;20126;-61
2023/09/28 12:28:12;;;;;;;13.98;2.85;;;;;;;23.46;42.94;96644.66;5134074;27;20073;-61
2023/09/28 12:30:39;;;;;;;9.13;2.88;;;;;;;23.48;42.85;96645.38;5134240;28;20059;-61
2023/09/28 12:33:25;;;;;;;12.40;3.65;;;;;;;23.50;42.80;96647.91;5134022;28;20442;-60
2023/09/28 12:36:11;;;;;;;17.88;3.20;;;;;;;23.48;43.06;96656.03;5133928;27;20512;-60
2023/09/28 12:38:38;;;;;;;12.18;3.30;;;;;;;23.48;43.06;96645.38;5134171;27;20047;-60
2023/09/28 12:41:24;;;;;;;7.90;3.33;;;;;;;23.48;43.11;96651.53;5133992;28;20100;-61
2023/09/28 12:43:53;;;;;;;11.88;4.18;;;;;;;23.39;43.50;96648.84;5133964;27;20047;-61
2023/09/28 12:49:04;;;;;;;13.68;3.33;;;;;;;23.22;43.44;96649.34;5133877;28;20107;-61
2023/09/28 12:51:31;;;;;;;9.57;3.03;;;;;;;23.14;43.94;96645.66;5133768;27;20516;-61
2023/09/28 12:54:17;;;;;;;6.30;2.92;;;;;;;23.05;43.61;96642.81;5133839;28;20074;-61
2023/09/28 12:56:45;;;;;;;9.07;3.25;;;;;;;23.04;43.51;96645.59;5133659;27;20059;-61
2023/09/28 12:59:15;;;;;;;11.35;3.22;;;;;;;23.05;43.88;96642.81;5133931;28;20043;-61
2023/09/28 13:01:43;;;;;;;12.90;3.42;;;;;;;23.02;44.25;96652.91;5133537;28;20062;-61
2023/09/28 13:04:10;;;;;;;11.10;3.05;;;;;;;22.98;43.54;96639.00;5133837;28;20406;-61
2023/09/28 13:06:38;;;;;;;11.48;3.33;;;;;;;22.97;44.68;96650.66;5133814;28;20057;-61
2023/09/28 13:09:06;;;;;;;9.82;3.60;;;;;;;22.88;43.83;96638.09;5133706;28;20405;-61
2023/09/28 13:11:34;;;;;;;22.73;3.28;;;;;;;22.87;44.63;96641.75;5133615;28;20039;-61
2023/09/28 13:14:01;;;;;;;6.53;2.95;;;;;;;22.80;44.41;96646.75;5133726;28;20459;-61
2023/09/28 13:16:30;;;;;;;7.88;3.15;;;;;;;22.74;44.47;96656.16;5133516;28;20116;-61
2023/09/28 13:18:59;;;;;;;15.05;3.58;;;;;;;22.72;44.63;96645.63;5133583;28;20092;-61
2023/09/28 13:21:27;;;;;;;10.85;3.17;;;;;;;22.75;45.27;96641.00;5133549;28;20166;-61
2023/09/28 13:23:55;;;;;;;10.40;3.53;;;;;;;22.76;44.72;96642.69;5133469;28;20047;-61